createdAt,value
2023-04-16T00:01:02.766Z,7.41
2023-04-16T00:03:31.112Z,7.38
2023-04-16T00:06:00.805Z,7.37
2023-04-16T00:08:29.121Z,7.40
2023-04-16T00:10:57.341Z,7.37
2023-04-16T00:13:26.165Z,7.24
2023-04-16T00:15:54.626Z,7.31
2023-04-16T00:18:22.740Z,7.35
2023-04-16T00:20:51.264Z,7.33
2023-04-16T00:23:21.179Z,7.33
2023-04-16T00:25:49.453Z,7.30
2023-04-16T00:28:17.940Z,7.28
2023-04-16T00:30:48.376Z,7.29
2023-04-16T00:33:18.066Z,7.32
2023-04-16T00:35:47.385Z,7.31
2023-04-16T00:38:16.294Z,7.36
2023-04-16T00:40:45.985Z,7.33
2023-04-16T00:43:22.020Z,7.38
2023-04-16T00:45:54.307Z,7.35
2023-04-16T00:48:23.229Z,7.31
2023-04-16T00:50:52.145Z,7.32
2023-04-16T00:53:20.752Z,7.31
2023-04-16T00:55:50.584Z,7.30
2023-04-16T00:58:19.675Z,7.32
2023-04-16T01:00:50.237Z,7.32
2023-04-16T01:03:19.013Z,7.05
2023-04-16T01:05:49.534Z,7.25
2023-04-16T01:08:19.287Z,7.27
2023-04-16T01:10:47.618Z,7.25
2023-04-16T01:13:20.019Z,7.24
2023-04-16T01:15:48.242Z,7.23
2023-04-16T01:18:16.911Z,7.22
2023-04-16T01:20:46.863Z,7.20
2023-04-16T01:23:15.269Z,7.19
2023-04-16T01:25:43.479Z,7.21
2023-04-16T01:28:12.062Z,7.20
2023-04-16T01:30:40.275Z,7.21
2023-04-16T01:33:23.058Z,7.22
2023-04-16T01:35:52.611Z,7.24
2023-04-16T01:38:21.006Z,7.22
2023-04-16T01:40:49.552Z,7.23
2023-04-16T01:43:19.126Z,7.21
2023-04-16T01:45:50.071Z,7.20
2023-04-16T01:48:21.307Z,7.22
2023-04-16T01:50:49.902Z,7.20
2023-04-16T01:53:19.832Z,7.18
2023-04-16T01:55:48.397Z,7.19
2023-04-16T01:58:16.992Z,7.17
2023-04-16T02:00:45.469Z,7.14
2023-04-16T02:03:14.219Z,7.11
2023-04-16T02:05:42.540Z,7.14
2023-04-16T02:08:13.210Z,7.17
2023-04-16T02:10:43.042Z,7.13
2023-04-16T02:13:11.249Z,7.17
2023-04-16T02:15:39.693Z,7.08
2023-04-16T02:18:08.389Z,7.09
2023-04-16T02:20:41.369Z,7.07
2023-04-16T02:23:10.305Z,7.06
2023-04-16T02:25:43.902Z,7.09
2023-04-16T02:28:14.736Z,7.06
2023-04-16T02:30:46.516Z,7.03
2023-04-16T02:33:20.195Z,6.88
2023-04-16T02:35:57.897Z,7.05
2023-04-16T02:38:28.826Z,7.06
2023-04-16T02:40:59.000Z,7.02
2023-04-16T02:43:27.216Z,7.04
2023-04-16T02:45:55.777Z,6.93
2023-04-16T02:48:24.023Z,7.01
2023-04-16T02:50:52.081Z,7.01
2023-04-16T02:53:20.514Z,7.02
2023-04-16T02:55:52.814Z,7.01
2023-04-16T02:58:23.980Z,7.00
2023-04-16T03:00:52.730Z,7.01
2023-04-16T03:03:22.466Z,6.99
2023-04-16T03:05:50.974Z,6.99
2023-04-16T03:08:19.828Z,7.05
2023-04-16T03:10:48.719Z,7.04
2023-04-16T03:13:16.812Z,7.01
2023-04-16T03:15:51.139Z,7.02
2023-04-16T03:18:21.644Z,7.01
2023-04-16T03:20:53.429Z,7.02
2023-04-16T03:23:21.619Z,6.90
2023-04-16T03:25:49.645Z,6.99
2023-04-16T03:28:19.854Z,6.98
2023-04-16T03:30:53.651Z,6.98
2023-04-16T03:33:22.965Z,6.96
2023-04-16T03:36:01.443Z,6.97
2023-04-16T03:38:34.533Z,6.99
2023-04-16T03:41:02.684Z,6.98
2023-04-16T03:43:34.316Z,6.99
2023-04-16T03:46:11.477Z,7.02
2023-04-16T03:48:39.578Z,7.00
2023-04-16T03:51:09.840Z,7.02
2023-04-16T03:53:38.178Z,7.08
2023-04-16T03:56:06.730Z,7.06
2023-04-16T03:58:35.134Z,7.11
2023-04-16T04:01:04.896Z,7.10
2023-04-16T04:03:35.537Z,7.07
2023-04-16T04:06:08.482Z,7.06
2023-04-16T04:08:36.766Z,7.05
2023-04-16T04:11:06.222Z,7.04
2023-04-16T04:14:53.296Z,7.02
2023-04-16T04:17:22.241Z,7.04
2023-04-16T04:22:28.524Z,7.05
2023-04-16T04:24:56.974Z,7.05
2023-04-16T04:27:28.502Z,7.06
2023-04-16T04:29:58.838Z,7.03
2023-04-16T04:32:29.092Z,7.04
2023-04-16T04:34:57.426Z,7.01
2023-04-16T04:37:25.866Z,7.04
2023-04-16T04:39:53.983Z,7.11
2023-04-16T04:42:22.737Z,7.12
2023-04-16T04:44:51.388Z,7.18
2023-04-16T04:47:24.023Z,7.14
2023-04-16T04:49:54.311Z,7.13
2023-04-16T04:52:26.318Z,7.13
2023-04-16T04:54:55.137Z,7.15
2023-04-16T04:57:23.394Z,7.13
2023-04-16T04:59:54.900Z,7.13
2023-04-16T05:02:25.245Z,7.18
2023-04-16T05:04:53.416Z,7.18
2023-04-16T05:07:22.460Z,7.22
2023-04-16T05:09:51.055Z,7.22
2023-04-16T05:12:19.415Z,7.24
2023-04-16T05:14:47.474Z,7.29
2023-04-16T05:17:18.388Z,7.32
2023-04-16T05:19:47.986Z,7.33
2023-04-16T05:22:19.068Z,7.35
2023-04-16T05:24:47.209Z,7.38
2023-04-16T05:27:15.636Z,7.23
2023-04-16T05:29:43.924Z,7.40
2023-04-16T05:32:12.292Z,7.43
2023-04-16T05:34:40.615Z,7.41
2023-04-16T05:37:10.289Z,7.43
2023-04-16T05:39:40.511Z,7.44
2023-04-16T05:42:10.884Z,7.50
2023-04-16T05:44:39.385Z,7.45
2023-04-16T05:47:09.368Z,7.46
2023-04-16T05:49:38.150Z,7.51
2023-04-16T05:52:07.675Z,7.54
2023-04-16T05:54:37.231Z,7.55
2023-04-16T05:57:05.381Z,7.55
2023-04-16T05:59:34.626Z,7.62
2023-04-16T06:02:05.221Z,7.67
2023-04-16T06:04:33.836Z,7.63
2023-04-16T06:07:01.981Z,7.71
2023-04-16T06:09:30.895Z,7.75
2023-04-16T06:12:01.118Z,7.73
2023-04-16T06:14:29.441Z,7.73
2023-04-16T06:16:57.521Z,7.73
2023-04-16T06:19:25.891Z,7.71
2023-04-16T06:21:56.851Z,7.67
2023-04-16T06:24:24.960Z,7.69
2023-04-16T06:26:54.366Z,7.72
2023-04-16T06:29:36.886Z,7.49
2023-04-16T06:32:13.852Z,7.65
2023-04-16T06:34:42.731Z,7.67
2023-04-16T06:37:10.968Z,7.62
2023-04-16T06:39:39.270Z,7.61
2023-04-16T06:42:10.075Z,7.68
2023-04-16T06:44:39.599Z,7.79
2023-04-16T06:47:07.889Z,7.80
2023-04-16T06:49:38.735Z,7.82
2023-04-16T06:52:06.870Z,7.79
2023-04-16T06:54:35.209Z,7.83
2023-04-16T06:57:03.673Z,7.92
2023-04-16T06:59:31.867Z,7.89
2023-04-16T07:02:01.567Z,7.98
2023-04-16T07:04:30.162Z,8.05
2023-04-16T07:06:58.336Z,8.15
2023-04-16T07:09:27.288Z,8.13
2023-04-16T07:11:56.004Z,8.16
2023-04-16T07:14:24.210Z,8.14
2023-04-16T07:17:12.448Z,8.22
2023-04-16T07:19:40.604Z,8.27
2023-04-16T07:22:08.668Z,8.45
2023-04-16T07:24:37.260Z,8.50
2023-04-16T07:27:05.499Z,8.50
2023-04-16T07:29:36.239Z,8.40
2023-04-16T07:32:04.869Z,8.64
2023-04-16T07:34:34.521Z,8.76
2023-04-16T07:37:02.747Z,8.59
2023-04-16T07:39:30.989Z,8.58
2023-04-16T07:41:59.162Z,8.74
2023-04-16T07:44:30.924Z,8.63
2023-04-16T07:47:02.860Z,8.71
2023-04-16T07:49:34.349Z,8.78
2023-04-16T07:52:03.400Z,8.81
2023-04-16T07:54:33.814Z,8.87
2023-04-16T07:57:02.291Z,8.87
2023-04-16T07:59:31.018Z,8.94
2023-04-16T08:01:59.313Z,8.97
2023-04-16T08:04:27.902Z,8.97
2023-04-16T08:06:57.866Z,9.06
2023-04-16T08:09:29.495Z,9.28
2023-04-16T08:11:58.083Z,9.46
2023-04-16T08:14:29.555Z,9.33
2023-04-16T08:16:57.687Z,9.36
2023-04-16T08:19:25.933Z,9.29
2023-04-16T08:21:54.745Z,9.17
2023-04-16T08:24:24.368Z,9.08
2023-04-16T08:26:53.615Z,8.99
2023-04-16T08:29:26.441Z,8.94
2023-04-16T08:31:54.963Z,8.69
2023-04-16T08:34:23.624Z,8.40
2023-04-16T08:36:52.338Z,8.34
2023-04-16T08:39:20.714Z,8.18
2023-04-16T08:41:51.218Z,8.10
2023-04-16T08:44:22.565Z,8.01
2023-04-16T08:46:54.858Z,7.88
2023-04-16T08:49:25.291Z,7.76
2023-04-16T08:51:55.286Z,7.68
2023-04-16T08:54:34.102Z,7.68
2023-04-16T08:57:07.327Z,7.50
2023-04-16T08:59:37.173Z,7.54
2023-04-16T09:02:07.381Z,7.65
2023-04-16T09:04:37.894Z,7.64
2023-04-16T09:07:09.402Z,7.60
2023-04-16T09:09:41.081Z,7.61
2023-04-16T09:12:11.527Z,7.57
2023-04-16T09:15:57.330Z,7.55
2023-04-16T09:18:28.511Z,7.58
2023-04-16T09:20:57.816Z,7.57
2023-04-16T09:23:28.203Z,7.57
2023-04-16T09:25:59.732Z,7.57
2023-04-16T09:28:44.886Z,7.61
2023-04-16T09:31:16.319Z,7.62
2023-04-16T09:34:01.482Z,7.50
2023-04-16T09:36:30.276Z,7.46
2023-04-16T09:38:59.394Z,7.36
2023-04-16T09:41:29.401Z,7.43
2023-04-16T09:43:58.611Z,7.44
2023-04-16T09:46:31.924Z,7.43
2023-04-16T09:48:59.928Z,7.43
2023-04-16T09:51:37.784Z,7.38
2023-04-16T09:54:08.115Z,7.46
2023-04-16T09:56:43.684Z,7.54
2023-04-16T09:59:17.977Z,7.56
2023-04-16T10:01:51.116Z,7.50
2023-04-16T10:04:19.464Z,7.58
2023-04-16T10:07:04.552Z,7.53
2023-04-16T10:09:33.627Z,7.60
2023-04-16T10:12:02.067Z,7.56
2023-04-16T10:14:30.976Z,7.52
2023-04-16T10:17:00.862Z,7.67
2023-04-16T10:19:33.235Z,7.68
2023-04-16T10:22:01.750Z,7.76
2023-04-16T10:24:31.224Z,7.87
2023-04-16T10:27:00.171Z,7.89
2023-04-16T10:29:29.894Z,7.88
2023-04-16T10:32:00.900Z,7.87
2023-04-16T10:34:32.890Z,7.99
2023-04-16T10:37:01.061Z,7.95
2023-04-16T10:39:30.125Z,8.07
2023-04-16T10:42:09.908Z,7.96
2023-04-16T10:44:38.780Z,8.11
2023-04-16T10:47:13.651Z,8.05
2023-04-16T10:49:44.899Z,8.05
2023-04-16T10:52:17.065Z,8.02
2023-04-16T10:54:48.441Z,8.02
2023-04-16T10:57:18.809Z,8.10
2023-04-16T10:59:50.455Z,8.10
2023-04-16T11:02:20.558Z,8.05
2023-04-16T11:04:50.287Z,8.14
2023-04-16T11:07:21.022Z,8.15
2023-04-16T11:09:57.738Z,8.23
2023-04-16T11:12:34.440Z,8.36
2023-04-16T11:15:04.112Z,8.64
2023-04-16T11:20:26.312Z,8.84
2023-04-16T11:22:56.157Z,9.11
2023-04-16T11:25:26.492Z,9.16
2023-04-16T11:27:55.055Z,9.31
2023-04-16T11:30:30.973Z,9.39
2023-04-16T11:33:04.593Z,9.39
2023-04-16T11:35:33.170Z,9.49
2023-04-16T11:38:04.142Z,9.52
2023-04-16T11:40:36.326Z,9.55
2023-04-16T11:43:06.086Z,9.51
2023-04-16T11:45:34.493Z,9.56
2023-04-16T11:48:04.246Z,9.63
2023-04-16T11:50:32.733Z,9.69
2023-04-16T11:53:06.471Z,9.68
2023-04-16T11:55:44.613Z,9.55
2023-04-16T11:58:15.362Z,9.65
2023-04-16T12:00:46.241Z,9.65
2023-04-16T12:03:16.642Z,9.68
2023-04-16T12:05:45.110Z,9.90
2023-04-16T12:08:13.739Z,9.91
2023-04-16T12:10:54.972Z,9.98
2023-04-16T12:13:23.899Z,9.90
2023-04-16T12:15:53.469Z,9.96
2023-04-16T12:18:27.423Z,10.09
2023-04-16T12:20:56.125Z,10.18
2023-04-16T12:23:28.073Z,10.48
2023-04-16T12:25:59.768Z,10.56
2023-04-16T12:28:30.186Z,10.36
2023-04-16T12:30:58.644Z,10.26
2023-04-16T12:33:28.698Z,10.26
2023-04-16T12:35:56.939Z,10.35
2023-04-16T12:38:26.311Z,10.57
2023-04-16T12:40:57.355Z,10.64
2023-04-16T12:43:26.269Z,11.07
2023-04-16T12:45:57.449Z,11.20
2023-04-16T12:48:25.655Z,11.30
2023-04-16T12:50:56.194Z,11.42
2023-04-16T12:53:24.773Z,11.45
2023-04-16T12:55:53.215Z,11.47
2023-04-16T12:58:21.450Z,11.50
2023-04-16T13:00:49.949Z,11.40
2023-04-16T13:03:18.314Z,11.48
2023-04-16T13:05:46.612Z,11.34
2023-04-16T13:08:16.818Z,11.16
2023-04-16T13:10:45.077Z,11.15
2023-04-16T13:13:13.473Z,11.13
2023-04-16T13:15:44.337Z,11.26
2023-04-16T13:18:14.870Z,10.98
2023-04-16T13:20:43.401Z,10.93
2023-04-16T13:23:12.078Z,10.81
2023-04-16T13:25:41.667Z,10.64
2023-04-16T13:28:10.210Z,10.64
2023-04-16T13:30:38.924Z,10.63
2023-04-16T13:33:07.066Z,10.63
2023-04-16T13:35:35.818Z,10.64
2023-04-16T13:38:04.400Z,10.71
2023-04-16T13:40:32.673Z,10.72
2023-04-16T13:43:02.312Z,10.70
2023-04-16T13:45:30.554Z,10.71
2023-04-16T13:47:58.794Z,10.68
2023-04-16T13:50:30.023Z,10.45
2023-04-16T13:52:58.813Z,10.35
2023-04-16T13:55:27.026Z,10.32
2023-04-16T13:57:56.368Z,10.24
2023-04-16T14:00:27.411Z,10.14
2023-04-16T14:02:55.742Z,10.10
2023-04-16T14:05:27.342Z,10.06
2023-04-16T14:07:57.717Z,10.04
2023-04-16T14:10:26.631Z,10.02
2023-04-16T14:12:58.580Z,9.88
2023-04-16T14:16:56.747Z,9.77
2023-04-16T14:19:27.399Z,9.74
2023-04-16T14:21:57.853Z,9.66
2023-04-16T14:24:26.085Z,9.55
2023-04-16T14:26:56.507Z,9.51
2023-04-16T14:29:24.692Z,9.48
2023-04-16T14:31:53.085Z,9.40
2023-04-16T14:34:22.585Z,9.47
2023-04-16T14:36:51.991Z,9.55
2023-04-16T14:39:20.226Z,9.61
2023-04-16T14:41:48.848Z,9.55
2023-04-16T14:44:17.056Z,9.69
2023-04-16T14:46:47.830Z,9.70
2023-04-16T14:49:18.178Z,9.66
2023-04-16T14:51:50.658Z,9.66
2023-04-16T14:54:19.268Z,9.80
2023-04-16T14:56:47.761Z,9.80
2023-04-16T14:59:16.644Z,9.71
2023-04-16T15:01:47.451Z,9.64
2023-04-16T15:04:18.842Z,9.65
2023-04-16T15:06:47.221Z,9.77
2023-04-16T15:09:19.127Z,9.95
2023-04-16T15:11:48.157Z,10.13
2023-04-16T15:14:16.825Z,10.06
2023-04-16T15:16:46.060Z,10.15
2023-04-16T15:19:14.285Z,10.21
2023-04-16T15:21:47.484Z,10.32
2023-04-16T15:24:16.983Z,10.23
2023-04-16T15:26:46.591Z,10.03
2023-04-16T15:29:14.825Z,10.10
2023-04-16T15:31:43.793Z,10.01
2023-04-16T15:34:12.735Z,9.94
2023-04-16T15:36:41.235Z,9.98
2023-04-16T15:39:11.905Z,10.03
2023-04-16T15:41:57.385Z,10.02
2023-04-16T15:44:36.232Z,9.92
2023-04-16T15:47:06.400Z,9.98
2023-04-16T15:49:37.631Z,9.82
2023-04-16T15:52:06.773Z,9.91
2023-04-16T15:54:34.961Z,9.98
2023-04-16T15:57:03.361Z,9.87
2023-04-16T15:59:33.619Z,9.77
2023-04-16T16:02:04.214Z,9.85
2023-04-16T16:04:32.530Z,9.92
2023-04-16T16:07:02.543Z,9.86
2023-04-16T16:09:31.423Z,9.79
2023-04-16T16:12:00.035Z,9.77
2023-04-16T16:14:28.224Z,9.66
2023-04-16T16:16:57.944Z,9.66
2023-04-16T16:19:29.101Z,9.66
2023-04-16T16:21:57.827Z,9.52
2023-04-16T16:24:26.512Z,9.48
2023-04-16T16:26:54.821Z,9.46
2023-04-16T16:29:23.163Z,9.46
2023-04-16T16:31:51.722Z,9.59
2023-04-16T16:34:21.615Z,9.53
2023-04-16T16:36:50.735Z,9.59
2023-04-16T16:39:22.349Z,9.66
2023-04-16T16:41:52.408Z,9.70
2023-04-16T16:44:20.926Z,9.73
2023-04-16T16:46:49.537Z,9.75
2023-04-16T16:49:18.780Z,9.78
2023-04-16T16:51:48.669Z,9.85
2023-04-16T16:54:19.074Z,9.97
2023-04-16T16:56:50.279Z,10.03
2023-04-16T16:59:18.879Z,10.10
2023-04-16T17:01:47.165Z,10.15
2023-04-16T17:04:17.184Z,10.17
2023-04-16T17:06:49.105Z,10.19
2023-04-16T17:09:18.132Z,10.27
2023-04-16T17:11:46.575Z,10.34
2023-04-16T17:14:14.893Z,10.37
2023-04-16T17:16:46.478Z,10.41
2023-04-16T17:19:18.114Z,10.38
2023-04-16T17:21:48.784Z,10.35
2023-04-16T17:24:17.998Z,10.34
2023-04-16T17:26:46.297Z,10.31
2023-04-16T17:29:14.793Z,10.26
2023-04-16T17:31:43.158Z,10.23
2023-04-16T17:34:11.758Z,10.17
2023-04-16T17:36:40.066Z,10.16
2023-04-16T17:39:10.574Z,10.11
2023-04-16T17:41:38.884Z,10.06
2023-04-16T17:44:08.455Z,10.02
2023-04-16T17:46:38.707Z,10.00
2023-04-16T17:49:06.877Z,9.95
2023-04-16T17:51:37.390Z,9.94
2023-04-16T17:54:07.183Z,9.90
2023-04-16T17:56:39.069Z,9.86
2023-04-16T17:59:09.805Z,9.85
2023-04-16T18:01:38.670Z,9.83
2023-04-16T18:04:07.211Z,9.80
2023-04-16T18:06:36.215Z,9.76
2023-04-16T18:09:05.874Z,9.75
2023-04-16T18:11:38.460Z,9.72
2023-04-16T18:14:10.399Z,9.70
2023-04-16T18:16:39.251Z,9.69
2023-04-16T18:19:09.214Z,9.66
2023-04-16T18:21:37.636Z,9.65
2023-04-16T18:24:06.860Z,9.64
2023-04-16T18:26:36.231Z,9.61
2023-04-16T18:29:06.097Z,9.60
2023-04-16T18:31:35.260Z,9.60
2023-04-16T18:34:05.667Z,9.58
2023-04-16T18:36:33.862Z,9.54
2023-04-16T18:39:02.732Z,9.46
2023-04-16T18:41:31.801Z,9.37
2023-04-16T18:44:01.222Z,9.30
2023-04-16T18:46:30.919Z,9.07
2023-04-16T18:49:00.213Z,8.96
2023-04-16T18:51:28.660Z,8.84
2023-04-16T18:53:57.006Z,8.81
2023-04-16T18:56:26.158Z,8.78
2023-04-16T18:58:57.468Z,8.66
2023-04-16T19:01:25.763Z,8.64
2023-04-16T19:03:56.122Z,8.54
2023-04-16T19:06:24.544Z,8.54
2023-04-16T19:08:53.309Z,8.47
2023-04-16T19:11:21.939Z,8.38
2023-04-16T19:13:50.566Z,8.31
2023-04-16T19:17:56.170Z,8.21
2023-04-16T19:20:24.411Z,8.17
2023-04-16T19:22:52.641Z,8.13
2023-04-16T19:25:21.162Z,8.09
2023-04-16T19:27:49.351Z,8.07
2023-04-16T19:30:17.775Z,8.02
2023-04-16T19:32:45.968Z,8.00
2023-04-16T19:35:16.048Z,8.00
2023-04-16T19:37:47.029Z,8.00
2023-04-16T19:40:17.734Z,7.99
2023-04-16T19:42:46.260Z,7.95
2023-04-16T19:45:18.534Z,7.97
2023-04-16T19:47:49.210Z,7.88
2023-04-16T19:50:19.044Z,7.98
2023-04-16T19:52:49.509Z,7.98
2023-04-16T19:55:18.098Z,7.97
2023-04-16T19:57:48.527Z,7.98
2023-04-16T20:00:18.073Z,8.00
2023-04-16T20:02:46.266Z,7.99
2023-04-16T20:05:14.993Z,8.01
2023-04-16T20:07:44.442Z,8.00
2023-04-16T20:10:12.990Z,7.97
2023-04-16T20:12:41.382Z,7.93
2023-04-16T20:15:12.819Z,7.93
2023-04-16T20:17:43.196Z,7.96
2023-04-16T20:20:12.364Z,7.99
2023-04-16T20:22:41.162Z,7.92
2023-04-16T20:25:11.522Z,7.91
2023-04-16T20:27:39.966Z,7.89
2023-04-16T20:30:09.025Z,7.83
2023-04-16T20:32:37.378Z,7.88
2023-04-16T20:35:10.971Z,7.87
2023-04-16T20:37:39.955Z,7.86
2023-04-16T20:40:15.088Z,7.81
2023-04-16T20:42:47.259Z,7.82
2023-04-16T20:45:17.899Z,7.78
2023-04-16T20:47:46.502Z,7.77
2023-04-16T20:50:15.066Z,7.75
2023-04-16T20:52:43.621Z,7.78
2023-04-16T20:55:11.834Z,7.74
2023-04-16T20:57:41.646Z,7.74
2023-04-16T21:00:12.091Z,7.76
2023-04-16T21:02:40.953Z,7.72
2023-04-16T21:05:14.266Z,7.73
2023-04-16T21:07:42.809Z,7.69
2023-04-16T21:10:11.718Z,7.73
2023-04-16T21:12:43.798Z,7.74
2023-04-16T21:15:12.736Z,7.72
2023-04-16T21:17:41.227Z,7.73
2023-04-16T21:20:13.528Z,7.73
2023-04-16T21:22:41.910Z,7.69
2023-04-16T21:25:11.586Z,7.71
2023-04-16T21:27:39.694Z,7.71
2023-04-16T21:30:11.054Z,7.69
2023-04-16T21:32:39.223Z,7.71
2023-04-16T21:35:10.854Z,7.75
2023-04-16T21:37:39.218Z,7.69
2023-04-16T21:40:10.498Z,7.71
2023-04-16T21:42:40.004Z,7.71
2023-04-16T21:45:12.420Z,7.66
2023-04-16T21:47:41.109Z,7.64
2023-04-16T21:50:10.170Z,7.64
2023-04-16T21:52:46.820Z,7.64
2023-04-16T21:55:15.387Z,7.62
2023-04-16T21:57:43.905Z,7.61
2023-04-16T22:00:18.498Z,7.60
2023-04-16T22:02:46.696Z,7.58
2023-04-16T22:05:15.239Z,7.62
2023-04-16T22:07:43.610Z,7.63
2023-04-16T22:10:13.707Z,7.66
2023-04-16T22:12:45.113Z,7.74
2023-04-16T22:15:15.446Z,7.80
2023-04-16T22:17:43.718Z,7.85
2023-04-16T22:20:13.339Z,7.89
2023-04-16T22:22:42.630Z,7.82
2023-04-16T22:25:11.345Z,7.98
2023-04-16T22:27:39.767Z,7.99
2023-04-16T22:30:09.379Z,8.00
2023-04-16T22:32:41.983Z,7.99
2023-04-16T22:35:10.861Z,7.95
2023-04-16T22:37:38.981Z,7.97
2023-04-16T22:40:11.889Z,7.99
2023-04-16T22:42:40.123Z,8.06
2023-04-16T22:45:09.408Z,8.04
2023-04-16T22:47:37.565Z,8.04
2023-04-16T22:50:08.822Z,8.05
2023-04-16T22:52:36.903Z,7.91
2023-04-16T22:55:08.667Z,7.99
2023-04-16T22:57:37.302Z,8.00
2023-04-16T23:00:09.661Z,7.96
2023-04-16T23:02:38.004Z,7.96
2023-04-16T23:05:08.599Z,7.94
2023-04-16T23:07:36.834Z,7.93
2023-04-16T23:10:05.462Z,7.88
2023-04-16T23:12:33.534Z,7.89
2023-04-16T23:15:02.128Z,7.87
2023-04-16T23:17:33.610Z,7.87
2023-04-16T23:20:02.142Z,7.89
2023-04-16T23:22:31.809Z,7.89
2023-04-16T23:25:00.013Z,7.89
2023-04-16T23:27:28.402Z,7.89
2023-04-16T23:29:56.565Z,7.90
2023-04-16T23:32:25.229Z,7.86
2023-04-16T23:34:53.339Z,7.86
2023-04-16T23:37:21.911Z,7.86
2023-04-16T23:39:51.741Z,7.84
2023-04-16T23:42:19.962Z,7.86
2023-04-16T23:44:48.347Z,7.82
2023-04-16T23:47:16.592Z,7.79
2023-04-16T23:49:45.012Z,7.80
2023-04-16T23:52:13.137Z,7.80
2023-04-16T23:54:41.392Z,7.78
2023-04-16T23:57:13.283Z,7.79
2023-04-16T23:59:41.511Z,7.79
